sensor_id;sensor_type;location;lat;lon;timestamp;pressure;altitude;pressure_sealevel;temperature;humidity
71384;BME280;67558;52.166;5.004;2023-04-01T00:00:27;99118.22;;;12.25;74.11
71384;BME280;67558;52.166;5.004;2023-04-01T00:02:52;99128.63;;;12.26;74.10
71384;BME280;67558;52.166;5.004;2023-04-01T00:05:18;99120.13;;;12.24;74.18
71384;BME280;67558;52.166;5.004;2023-04-01T00:07:43;99124.34;;;12.25;74.18
71384;BME280;67558;52.166;5.004;2023-04-01T00:10:11;99130.19;;;12.27;73.98
71384;BME280;67558;52.166;5.004;2023-04-01T00:12:37;99135.09;;;12.25;74.06
71384;BME280;67558;52.166;5.004;2023-04-01T00:15:04;99131.63;;;12.25;73.75
71384;BME280;67558;52.166;5.004;2023-04-01T00:17:30;99129.91;;;12.20;74.23
71384;BME280;67558;52.166;5.004;2023-04-01T00:19:56;99128.94;;;12.16;73.93
71384;BME280;67558;52.166;5.004;2023-04-01T00:22:22;99135.72;;;12.22;74.21
71384;BME280;67558;52.166;5.004;2023-04-01T00:24:47;99127.69;;;12.14;74.29
71384;BME280;67558;52.166;5.004;2023-04-01T00:27:13;99133.66;;;12.11;74.27
71384;BME280;67558;52.166;5.004;2023-04-01T00:29:42;99140.31;;;12.13;74.26
71384;BME280;67558;52.166;5.004;2023-04-01T00:32:07;99137.16;;;12.11;74.19
71384;BME280;67558;52.166;5.004;2023-04-01T00:34:32;99139.84;;;12.11;74.21
71384;BME280;67558;52.166;5.004;2023-04-01T00:36:58;99137.16;;;12.11;74.42
71384;BME280;67558;52.166;5.004;2023-04-01T00:39:23;99156.41;;;12.13;74.37
71384;BME280;67558;52.166;5.004;2023-04-01T00:41:48;99136.22;;;12.07;74.26
71384;BME280;67558;52.166;5.004;2023-04-01T00:44:17;99151.66;;;12.10;74.31
71384;BME280;67558;52.166;5.004;2023-04-01T00:46:43;99148.03;;;12.06;74.17
71384;BME280;67558;52.166;5.004;2023-04-01T00:49:09;99151.94;;;12.00;74.56
71384;BME280;67558;52.166;5.004;2023-04-01T00:51:36;99152.13;;;12.03;74.69
71384;BME280;67558;52.166;5.004;2023-04-01T00:54:04;99155.09;;;12.02;74.49
71384;BME280;67558;52.166;5.004;2023-04-01T00:56:36;99146.13;;;11.98;74.24
71384;BME280;67558;52.166;5.004;2023-04-01T00:59:27;99162.38;;;12.01;74.59
71384;BME280;67558;52.166;5.004;2023-04-01T01:01:54;99154.31;;;12.01;74.35
71384;BME280;67558;52.166;5.004;2023-04-01T01:04:26;99154.31;;;11.93;74.52
71384;BME280;67558;52.166;5.004;2023-04-01T01:06:56;99159.84;;;11.96;74.30
71384;BME280;67558;52.166;5.004;2023-04-01T01:12:13;99145.94;;;11.85;74.87
71384;BME280;67558;52.166;5.004;2023-04-01T01:15:21;99148.16;;;11.83;74.91
71384;BME280;67558;52.166;5.004;2023-04-01T01:23:23;99173.50;;;11.86;74.53
71384;BME280;67558;52.166;5.004;2023-04-01T01:34:22;99166.22;;;11.69;75.50
71384;BME280;67558;52.166;5.004;2023-04-01T01:36:55;99161.19;;;11.67;74.97
71384;BME280;67558;52.166;5.004;2023-04-01T01:39:25;99163.56;;;11.69;74.90
71384;BME280;67558;52.166;5.004;2023-04-01T01:41:53;99164.69;;;11.68;75.32
71384;BME280;67558;52.166;5.004;2023-04-01T01:44:21;99165.28;;;11.65;75.33
71384;BME280;67558;52.166;5.004;2023-04-01T01:46:49;99165.44;;;11.60;75.29
71384;BME280;67558;52.166;5.004;2023-04-01T01:49:16;99164.50;;;11.64;75.28
71384;BME280;67558;52.166;5.004;2023-04-01T01:51:42;99158.00;;;11.57;75.22
71384;BME280;67558;52.166;5.004;2023-04-01T01:54:15;99167.00;;;11.61;75.34
71384;BME280;67558;52.166;5.004;2023-04-01T01:56:43;99175.03;;;11.61;75.34
71384;BME280;67558;52.166;5.004;2023-04-01T01:59:11;99173.47;;;11.60;75.48
71384;BME280;67558;52.166;5.004;2023-04-01T02:01:42;99175.19;;;11.56;75.56
71384;BME280;67558;52.166;5.004;2023-04-01T02:04:10;99177.22;;;11.59;75.31
71384;BME280;67558;52.166;5.004;2023-04-01T02:06:38;99177.56;;;11.57;75.64
71384;BME280;67558;52.166;5.004;2023-04-01T02:09:08;99183.84;;;11.61;75.21
71384;BME280;67558;52.166;5.004;2023-04-01T02:11:44;99189.53;;;11.60;75.45
71384;BME280;67558;52.166;5.004;2023-04-01T02:14:16;99193.78;;;11.61;75.06
71384;BME280;67558;52.166;5.004;2023-04-01T02:19:09;99186.84;;;11.60;75.16
71384;BME280;67558;52.166;5.004;2023-04-01T02:21:39;99195.97;;;11.59;75.05
71384;BME280;67558;52.166;5.004;2023-04-01T02:24:08;99198.47;;;11.46;75.44
71384;BME280;67558;52.166;5.004;2023-04-01T02:26:35;99198.16;;;11.48;75.45
71384;BME280;67558;52.166;5.004;2023-04-01T02:29:01;99206.66;;;11.50;75.75
71384;BME280;67558;52.166;5.004;2023-04-01T02:31:29;99204.13;;;11.45;75.54
71384;BME280;67558;52.166;5.004;2023-04-01T02:33:55;99211.88;;;11.46;75.73
71384;BME280;67558;52.166;5.004;2023-04-01T02:36:21;99210.56;;;11.44;75.83
71384;BME280;67558;52.166;5.004;2023-04-01T02:38:46;99201.75;;;11.43;75.73
71384;BME280;67558;52.166;5.004;2023-04-01T02:41:13;99209.63;;;11.40;75.74
71384;BME280;67558;52.166;5.004;2023-04-01T02:43:39;99200.31;;;11.37;75.83
71384;BME280;67558;52.166;5.004;2023-04-01T02:46:04;99215.00;;;11.48;75.79
71384;BME280;67558;52.166;5.004;2023-04-01T02:48:30;99217.56;;;11.54;75.62
71384;BME280;67558;52.166;5.004;2023-04-01T02:50:55;99215.97;;;11.53;75.73
71384;BME280;67558;52.166;5.004;2023-04-01T02:53:21;99224.00;;;11.53;75.75
71384;BME280;67558;52.166;5.004;2023-04-01T02:55:46;99225.59;;;11.54;75.68
71384;BME280;67558;52.166;5.004;2023-04-01T02:58:14;99231.72;;;11.54;75.54
71384;BME280;67558;52.166;5.004;2023-04-01T03:00:40;99233.16;;;11.52;75.78
71384;BME280;67558;52.166;5.004;2023-04-01T03:03:05;99231.41;;;11.47;75.92
71384;BME280;67558;52.166;5.004;2023-04-01T03:05:31;99234.38;;;11.45;75.80
71384;BME280;67558;52.166;5.004;2023-04-01T03:07:56;99245.41;;;11.53;75.92
71384;BME280;67558;52.166;5.004;2023-04-01T03:10:21;99238.50;;;11.52;75.79
71384;BME280;67558;52.166;5.004;2023-04-01T03:12:47;99244.63;;;11.52;76.01
71384;BME280;67558;52.166;5.004;2023-04-01T03:15:13;99242.25;;;11.51;75.95
71384;BME280;67558;52.166;5.004;2023-04-01T03:17:40;99253.94;;;11.55;75.90
71384;BME280;67558;52.166;5.004;2023-04-01T03:20:07;99260.88;;;11.56;76.05
71384;BME280;67558;52.166;5.004;2023-04-01T03:22:34;99220.28;;;11.31;76.35
71384;BME280;67558;52.166;5.004;2023-04-01T03:25:00;99272.38;;;11.56;76.25
71384;BME280;67558;52.166;5.004;2023-04-01T03:27:25;99263.88;;;11.54;76.07
71384;BME280;67558;52.166;5.004;2023-04-01T03:29:51;99278.41;;;11.62;76.28
71384;BME280;67558;52.166;5.004;2023-04-01T03:32:16;99275.25;;;11.60;76.23
71384;BME280;67558;52.166;5.004;2023-04-01T03:34:41;99276.94;;;11.56;76.17
71384;BME280;67558;52.166;5.004;2023-04-01T03:37:07;99288.78;;;11.63;76.17
71384;BME280;67558;52.166;5.004;2023-04-01T03:39:32;99292.28;;;11.64;76.08
71384;BME280;67558;52.166;5.004;2023-04-01T03:41:57;99285.47;;;11.58;76.35
71384;BME280;67558;52.166;5.004;2023-04-01T03:44:23;99293.84;;;11.65;76.27
71384;BME280;67558;52.166;5.004;2023-04-01T03:46:48;99305.81;;;11.67;76.06
71384;BME280;67558;52.166;5.004;2023-04-01T03:49:13;99293.66;;;11.61;76.28
71384;BME280;67558;52.166;5.004;2023-04-01T03:51:41;99298.72;;;11.63;76.25
71384;BME280;67558;52.166;5.004;2023-04-01T03:54:08;99303.13;;;11.67;76.27
71384;BME280;67558;52.166;5.004;2023-04-01T03:56:33;99315.75;;;11.67;76.27
71384;BME280;67558;52.166;5.004;2023-04-01T03:59:02;99316.53;;;11.67;76.22
71384;BME280;67558;52.166;5.004;2023-04-01T04:01:28;99314.97;;;11.66;76.23
71384;BME280;67558;52.166;5.004;2023-04-01T04:03:53;99328.06;;;11.68;76.14
71384;BME280;67558;52.166;5.004;2023-04-01T04:06:19;99334.50;;;11.67;76.27
71384;BME280;67558;52.166;5.004;2023-04-01T04:08:45;99330.38;;;11.61;76.63
71384;BME280;67558;52.166;5.004;2023-04-01T04:11:10;99330.56;;;11.64;76.23
71384;BME280;67558;52.166;5.004;2023-04-01T04:13:36;99317.91;;;11.56;76.34
71384;BME280;67558;52.166;5.004;2023-04-01T04:16:03;99352.16;;;11.68;76.46
71384;BME280;67558;52.166;5.004;2023-04-01T04:18:28;99353.44;;;11.71;76.16
71384;BME280;67558;52.166;5.004;2023-04-01T04:20:54;99356.41;;;11.69;76.07
71384;BME280;67558;52.166;5.004;2023-04-01T04:23:20;99356.56;;;11.64;76.23
71384;BME280;67558;52.166;5.004;2023-04-01T04:28:26;99366.50;;;11.72;76.01
71384;BME280;67558;52.166;5.004;2023-04-01T04:30:52;99369.03;;;11.68;76.12
71384;BME280;67558;52.166;5.004;2023-04-01T04:33:17;99357.78;;;11.58;76.38
71384;BME280;67558;52.166;5.004;2023-04-01T04:35:43;99377.84;;;11.69;76.15
71384;BME280;67558;52.166;5.004;2023-04-01T04:38:08;99373.69;;;11.63;76.03
71384;BME280;67558;52.166;5.004;2023-04-01T04:40:36;99389.66;;;11.68;75.89
71384;BME280;67558;52.166;5.004;2023-04-01T04:43:02;99395.91;;;11.63;76.18
71384;BME280;67558;52.166;5.004;2023-04-01T04:45:28;99395.31;;;11.66;75.73
71384;BME280;67558;52.166;5.004;2023-04-01T04:47:53;99389.28;;;11.61;76.08
71384;BME280;67558;52.166;5.004;2023-04-01T04:50:19;99394.66;;;11.61;76.53
71384;BME280;67558;52.166;5.004;2023-04-01T04:52:44;99407.13;;;11.65;76.25
71384;BME280;67558;52.166;5.004;2023-04-01T04:55:09;99415.53;;;11.73;76.25
71384;BME280;67558;52.166;5.004;2023-04-01T04:57:35;99421.00;;;11.67;76.38
71384;BME280;67558;52.166;5.004;2023-04-01T05:00:00;99422.09;;;11.66;76.58
71384;BME280;67558;52.166;5.004;2023-04-01T05:02:25;99421.44;;;11.61;76.46
71384;BME280;67558;52.166;5.004;2023-04-01T05:04:51;99432.81;;;11.66;76.26
71384;BME280;67558;52.166;5.004;2023-04-01T05:07:16;99439.16;;;11.71;76.41
71384;BME280;67558;52.166;5.004;2023-04-01T05:09:41;99441.00;;;11.70;76.37
71384;BME280;67558;52.166;5.004;2023-04-01T05:12:07;99434.88;;;11.92;75.41
71384;BME280;67558;52.166;5.004;2023-04-01T05:14:32;99436.53;;;12.11;74.95
71384;BME280;67558;52.166;5.004;2023-04-01T05:16:57;99455.19;;;12.16;74.58
71384;BME280;67558;52.166;5.004;2023-04-01T05:19:23;99446.47;;;12.10;74.53
71384;BME280;67558;52.166;5.004;2023-04-01T05:21:48;99457.53;;;12.17;74.46
71384;BME280;67558;52.166;5.004;2023-04-01T05:24:13;99462.41;;;12.15;74.45
71384;BME280;67558;52.166;5.004;2023-04-01T05:26:39;99469.06;;;12.18;74.22
71384;BME280;67558;52.166;5.004;2023-04-01T05:29:05;99468.75;;;12.19;73.88
71384;BME280;67558;52.166;5.004;2023-04-01T05:31:30;99476.63;;;12.16;73.91
71384;BME280;67558;52.166;5.004;2023-04-01T05:33:56;99478.09;;;12.22;74.12
71384;BME280;67558;52.166;5.004;2023-04-01T05:36:21;99484.34;;;12.17;74.31
71384;BME280;67558;52.166;5.004;2023-04-01T05:38:46;99486.25;;;12.17;74.02
71384;BME280;67558;52.166;5.004;2023-04-01T05:41:12;99478.84;;;12.14;74.11
71384;BME280;67558;52.166;5.004;2023-04-01T05:43:39;99491.75;;;12.12;74.27
71384;BME280;67558;52.166;5.004;2023-04-01T05:46:05;99504.38;;;12.11;74.36
71384;BME280;67558;52.166;5.004;2023-04-01T05:48:31;99501.69;;;12.11;74.31
71384;BME280;67558;52.166;5.004;2023-04-01T05:50:57;99507.19;;;12.15;74.20
71384;BME280;67558;52.166;5.004;2023-04-01T05:53:23;99500.88;;;12.11;74.13
71384;BME280;67558;52.166;5.004;2023-04-01T05:55:48;99467.34;;;11.91;74.14
71384;BME280;67558;52.166;5.004;2023-04-01T05:58:13;99504.53;;;12.15;74.36
71384;BME280;67558;52.166;5.004;2023-04-01T06:00:39;99506.41;;;12.14;74.07
71384;BME280;67558;52.166;5.004;2023-04-01T06:03:04;99510.22;;;12.13;74.14
71384;BME280;67558;52.166;5.004;2023-04-01T06:05:38;99519.34;;;12.12;74.19
71384;BME280;67558;52.166;5.004;2023-04-01T06:08:17;99512.50;;;12.06;74.41
71384;BME280;67558;52.166;5.004;2023-04-01T06:11:04;99518.56;;;12.12;74.51
71384;BME280;67558;52.166;5.004;2023-04-01T06:16:54;99526.94;;;12.19;74.16
71384;BME280;67558;52.166;5.004;2023-04-01T06:25:01;99544.59;;;11.75;75.72
71384;BME280;67558;52.166;5.004;2023-04-01T06:44:16;99583.13;;;11.65;76.51
71384;BME280;67558;52.166;5.004;2023-04-01T06:47:04;99591.63;;;11.67;76.48
71384;BME280;67558;52.166;5.004;2023-04-01T06:52:16;99594.03;;;11.68;76.43
71384;BME280;67558;52.166;5.004;2023-04-01T06:55:01;99610.38;;;11.67;76.79
71384;BME280;67558;52.166;5.004;2023-04-01T06:57:43;99603.75;;;11.64;76.74
71384;BME280;67558;52.166;5.004;2023-04-01T07:00:15;99610.38;;;11.67;76.70
71384;BME280;67558;52.166;5.004;2023-04-01T07:02:50;99598.50;;;11.59;76.33
71384;BME280;67558;52.166;5.004;2023-04-01T07:05:20;99616.84;;;11.66;76.41
71384;BME280;67558;52.166;5.004;2023-04-01T07:07:53;99618.44;;;11.67;76.56
71384;BME280;67558;52.166;5.004;2023-04-01T07:12:56;99627.56;;;11.66;76.62
71384;BME280;67558;52.166;5.004;2023-04-01T07:15:43;99641.13;;;11.69;76.65
71384;BME280;67558;52.166;5.004;2023-04-01T07:18:15;99646.19;;;11.71;76.63
71384;BME280;67558;52.166;5.004;2023-04-01T07:20:42;99646.19;;;11.71;76.95
71384;BME280;67558;52.166;5.004;2023-04-01T07:23:19;99636.69;;;11.65;76.64
71384;BME280;67558;52.166;5.004;2023-04-01T07:25:47;99648.25;;;11.74;76.49
71384;BME280;67558;52.166;5.004;2023-04-01T07:28:16;99654.13;;;11.76;76.75
71384;BME280;67558;52.166;5.004;2023-04-01T07:31:15;99664.34;;;11.74;76.88
71384;BME280;67558;52.166;5.004;2023-04-01T07:41:44;99633.63;;;11.58;76.51
71384;BME280;67558;52.166;5.004;2023-04-01T07:44:26;99666.13;;;11.79;76.58
71384;BME280;67558;52.166;5.004;2023-04-01T07:49:45;99689.53;;;11.87;76.50
71384;BME280;67558;52.166;5.004;2023-04-01T07:52:26;99692.19;;;11.87;76.36
71384;BME280;67558;52.166;5.004;2023-04-01T08:05:29;99712.47;;;11.93;76.37
71384;BME280;67558;52.166;5.004;2023-04-01T08:08:06;99716.75;;;11.94;76.71
71384;BME280;67558;52.166;5.004;2023-04-01T08:15:54;99729.25;;;11.99;76.51
71384;BME280;67558;52.166;5.004;2023-04-01T08:23:48;99731.16;;;11.98;76.39
71384;BME280;67558;52.166;5.004;2023-04-01T08:28:55;99737.00;;;12.00;76.49
71384;BME280;67558;52.166;5.004;2023-04-01T08:31:43;99740.97;;;12.03;76.35
71384;BME280;67558;52.166;5.004;2023-04-01T08:34:19;99750.97;;;12.11;76.56
71384;BME280;67558;52.166;5.004;2023-04-01T08:36:50;99756.22;;;12.16;76.55
71384;BME280;67558;52.166;5.004;2023-04-01T08:39:29;99761.47;;;12.21;76.53
71384;BME280;67558;52.166;5.004;2023-04-01T08:54:04;99786.72;;;12.43;76.15
71384;BME280;67558;52.166;5.004;2023-04-01T08:57:00;99789.81;;;12.50;75.97
71384;BME280;67558;52.166;5.004;2023-04-01T09:02:25;99794.63;;;12.62;76.01
71384;BME280;67558;52.166;5.004;2023-04-01T09:08:07;99794.09;;;12.74;75.92
71384;BME280;67558;52.166;5.004;2023-04-01T09:21:46;99811.72;;;13.11;75.09
71384;BME280;67558;52.166;5.004;2023-04-01T09:27:09;99817.81;;;13.48;73.00
71384;BME280;67558;52.166;5.004;2023-04-01T09:30:02;99818.28;;;13.50;73.00
71384;BME280;67558;52.166;5.004;2023-04-01T09:40:54;99837.50;;;13.35;74.54
71384;BME280;67558;52.166;5.004;2023-04-01T09:43:27;99837.84;;;13.42;74.38
71384;BME280;67558;52.166;5.004;2023-04-01T09:59:49;99852.44;;;13.49;73.45
71384;BME280;67558;52.166;5.004;2023-04-01T10:05:38;99855.50;;;13.65;74.10
71384;BME280;67558;52.166;5.004;2023-04-01T10:09:03;99866.50;;;13.78;73.76
71384;BME280;67558;52.166;5.004;2023-04-01T10:14:03;99864.53;;;14.01;73.27
71384;BME280;67558;52.166;5.004;2023-04-01T10:22:37;99877.38;;;14.12;71.70
71384;BME280;67558;52.166;5.004;2023-04-01T10:34:02;99880.81;;;14.04;71.98
71384;BME280;67558;52.166;5.004;2023-04-01T10:36:48;99873.94;;;13.89;71.65
71384;BME280;67558;52.166;5.004;2023-04-01T10:39:57;99888.50;;;13.88;71.71
71384;BME280;67558;52.166;5.004;2023-04-01T10:43:01;99885.31;;;13.78;71.55
71384;BME280;67558;52.166;5.004;2023-04-01T10:56:51;99909.34;;;13.51;72.73
71384;BME280;67558;52.166;5.004;2023-04-01T11:10:49;99918.94;;;14.06;72.64
71384;BME280;67558;52.166;5.004;2023-04-01T11:22:03;99933.16;;;14.38;72.31
71384;BME280;67558;52.166;5.004;2023-04-01T11:24:41;99927.16;;;14.41;72.06
71384;BME280;67558;52.166;5.004;2023-04-01T11:27:21;99913.06;;;14.36;71.77
71384;BME280;67558;52.166;5.004;2023-04-01T11:32:42;99933.16;;;14.38;71.74
71384;BME280;67558;52.166;5.004;2023-04-01T11:44:15;99942.69;;;14.13;71.16
71384;BME280;67558;52.166;5.004;2023-04-01T11:46:35;99960.44;;;14.14;71.34
71384;BME280;67558;52.166;5.004;2023-04-01T11:49:25;99957.53;;;14.02;70.56
71384;BME280;67558;52.166;5.004;2023-04-01T12:03:02;99980.16;;;13.33;72.11
71384;BME280;67558;52.166;5.004;2023-04-01T12:08:23;99981.94;;;13.24;72.99
71384;BME280;67558;52.166;5.004;2023-04-01T12:11:00;99993.09;;;13.31;73.31
71384;BME280;67558;52.166;5.004;2023-04-01T12:14:03;99988.31;;;13.28;73.43
71384;BME280;67558;52.166;5.004;2023-04-01T12:19:20;100003.25;;;13.34;73.37
71384;BME280;67558;52.166;5.004;2023-04-01T12:22:08;100016.66;;;13.34;73.29
71384;BME280;67558;52.166;5.004;2023-04-01T12:24:47;100010.38;;;13.39;73.03
71384;BME280;67558;52.166;5.004;2023-04-01T12:27:45;100010.88;;;13.41;72.82
71384;BME280;67558;52.166;5.004;2023-04-01T12:33:15;100027.66;;;13.46;72.62
71384;BME280;67558;52.166;5.004;2023-04-01T12:35:52;100029.13;;;13.52;72.56
71384;BME280;67558;52.166;5.004;2023-04-01T12:41:08;100040.38;;;13.55;72.01
71384;BME280;67558;52.166;5.004;2023-04-01T12:44:04;100026.56;;;13.47;71.79
71384;BME280;67558;52.166;5.004;2023-04-01T12:46:59;100040.56;;;13.58;72.05
71384;BME280;67558;52.166;5.004;2023-04-01T12:49:56;100038.25;;;13.65;72.21
71384;BME280;67558;52.166;5.004;2023-04-01T13:16:40;100075.94;;;14.19;70.35
71384;BME280;67558;52.166;5.004;2023-04-01T13:19:21;100080.44;;;14.32;70.14
71384;BME280;67558;52.166;5.004;2023-04-01T13:22:08;100066.41;;;14.36;69.59
71384;BME280;67558;52.166;5.004;2023-04-01T13:24:44;100080.09;;;14.48;69.12
71384;BME280;67558;52.166;5.004;2023-04-01T13:30:18;100092.69;;;14.39;69.14
71384;BME280;67558;52.166;5.004;2023-04-01T13:32:51;100095.66;;;14.28;68.83
71384;BME280;67558;52.166;5.004;2023-04-01T13:39:00;100102.56;;;13.98;69.88
71384;BME280;67558;52.166;5.004;2023-04-01T13:43:52;100123.34;;;13.70;70.60
71384;BME280;67558;52.166;5.004;2023-04-01T13:46:46;100120.19;;;13.54;71.08
71384;BME280;67558;52.166;5.004;2023-04-01T13:52:20;100131.72;;;13.27;71.88
71384;BME280;67558;52.166;5.004;2023-04-01T13:58:29;100127.13;;;12.86;73.14
71384;BME280;67558;52.166;5.004;2023-04-01T14:01:44;100134.78;;;12.79;73.94
71384;BME280;67558;52.166;5.004;2023-04-01T14:05:23;100136.88;;;12.68;74.18
71384;BME280;67558;52.166;5.004;2023-04-01T14:10:43;100143.00;;;12.55;74.70
71384;BME280;67558;52.166;5.004;2023-04-01T14:13:52;100142.50;;;12.53;74.55
71384;BME280;67558;52.166;5.004;2023-04-01T14:21:41;100161.72;;;12.41;75.05
71384;BME280;67558;52.166;5.004;2023-04-01T14:27:41;100173.34;;;12.36;75.45
71384;BME280;67558;52.166;5.004;2023-04-01T14:33:43;100178.13;;;12.39;75.47
71384;BME280;67558;52.166;5.004;2023-04-01T14:41:57;100190.81;;;12.34;76.17
71384;BME280;67558;52.166;5.004;2023-04-01T14:49:52;100204.34;;;12.42;75.86
71384;BME280;67558;52.166;5.004;2023-04-01T14:52:23;100215.88;;;12.43;75.74
71384;BME280;67558;52.166;5.004;2023-04-01T14:54:50;100211.91;;;12.40;75.78
71384;BME280;67558;52.166;5.004;2023-04-01T14:57:23;100211.91;;;12.40;75.96
71384;BME280;67558;52.166;5.004;2023-04-01T14:59:53;100223.78;;;12.53;75.61
71384;BME280;67558;52.166;5.004;2023-04-01T15:05:30;100232.22;;;12.60;75.25
71384;BME280;67558;52.166;5.004;2023-04-01T15:11:10;100238.31;;;12.66;75.06
71384;BME280;67558;52.166;5.004;2023-04-01T15:13:59;100249.66;;;12.63;75.06
71384;BME280;67558;52.166;5.004;2023-04-01T15:16:39;100254.72;;;12.64;74.74
71384;BME280;67558;52.166;5.004;2023-04-01T15:20:07;100259.56;;;12.62;74.80
71384;BME280;67558;52.166;5.004;2023-04-01T15:28:33;100274.84;;;12.48;74.90
71384;BME280;67558;52.166;5.004;2023-04-01T15:31:18;100284.47;;;12.49;75.23
71384;BME280;67558;52.166;5.004;2023-04-01T15:33:54;100285.56;;;12.48;74.92
71384;BME280;67558;52.166;5.004;2023-04-01T15:36:33;100292.59;;;12.44;75.12
71384;BME280;67558;52.166;5.004;2023-04-01T15:39:13;100288.00;;;12.44;74.93
71384;BME280;67558;52.166;5.004;2023-04-01T15:47:36;100319.03;;;12.32;75.28
71384;BME280;67558;52.166;5.004;2023-04-01T15:59:01;100338.16;;;12.25;75.21
71384;BME280;67558;52.166;5.004;2023-04-01T16:22:01;100371.59;;;12.08;75.35
71384;BME280;67558;52.166;5.004;2023-04-01T16:24:54;100376.94;;;12.08;75.28
71384;BME280;67558;52.166;5.004;2023-04-01T16:32:54;100397.56;;;12.13;75.26
71384;BME280;67558;52.166;5.004;2023-04-01T16:39:01;100403.22;;;12.12;75.51
71384;BME280;67558;52.166;5.004;2023-04-01T16:44:10;100410.50;;;12.06;75.38
71384;BME280;67558;52.166;5.004;2023-04-01T16:46:40;100419.63;;;12.05;75.37
71384;BME280;67558;52.166;5.004;2023-04-01T16:54:55;100444.28;;;12.07;74.44
71384;BME280;67558;52.166;5.004;2023-04-01T16:57:28;100446.72;;;12.03;74.22
71384;BME280;67558;52.166;5.004;2023-04-01T17:00:02;100460.91;;;12.04;73.83
71384;BME280;67558;52.166;5.004;2023-04-01T17:02:35;100472.16;;;12.06;74.04
71384;BME280;67558;52.166;5.004;2023-04-01T17:05:10;100460.19;;;11.98;73.66
71384;BME280;67558;52.166;5.004;2023-04-01T17:08:08;100452.75;;;11.85;74.08
71384;BME280;67558;52.166;5.004;2023-04-01T17:10:57;100475.50;;;11.93;73.85
71384;BME280;67558;52.166;5.004;2023-04-01T17:13:33;100487.25;;;11.97;73.64
71384;BME280;67558;52.166;5.004;2023-04-01T17:30:37;100530.16;;;11.07;75.73
71384;BME280;67558;52.166;5.004;2023-04-01T17:36:02;100546.56;;;10.91;76.58
71384;BME280;67558;52.166;5.004;2023-04-01T17:44:15;100565.06;;;10.77;77.18
71384;BME280;67558;52.166;5.004;2023-04-01T17:46:56;100570.69;;;10.80;76.80
71384;BME280;67558;52.166;5.004;2023-04-01T17:49:39;100531.41;;;10.55;76.62
71384;BME280;67558;52.166;5.004;2023-04-01T17:54:44;100594.22;;;10.73;77.08
71384;BME280;67558;52.166;5.004;2023-04-01T18:00:14;100602.78;;;10.75;77.16
71384;BME280;67558;52.166;5.004;2023-04-01T18:03:00;100608.41;;;10.79;77.08
71384;BME280;67558;52.166;5.004;2023-04-01T18:09:05;100611.09;;;10.74;76.81
71384;BME280;67558;52.166;5.004;2023-04-01T18:22:39;100676.09;;;10.64;75.89
71384;BME280;67558;52.166;5.004;2023-04-01T18:25:27;100670.75;;;10.64;75.93
71384;BME280;67558;52.166;5.004;2023-04-01T18:30:28;100688.69;;;10.58;75.99
71384;BME280;67558;52.166;5.004;2023-04-01T18:33:10;100685.75;;;10.44;76.20
71384;BME280;67558;52.166;5.004;2023-04-01T18:35:54;100699.66;;;10.57;76.24
71384;BME280;67558;52.166;5.004;2023-04-01T18:38:57;100703.66;;;10.59;76.20
71384;BME280;67558;52.166;5.004;2023-04-01T18:42:03;100711.69;;;10.59;76.02
71384;BME280;67558;52.166;5.004;2023-04-01T18:44:46;100721.59;;;10.59;75.63
71384;BME280;67558;52.166;5.004;2023-04-01T18:47:43;100726.13;;;10.53;75.36
71384;BME280;67558;52.166;5.004;2023-04-01T18:53:22;100756.34;;;10.49;75.68
71384;BME280;67558;52.166;5.004;2023-04-01T18:55:55;100730.38;;;10.34;75.68
71384;BME280;67558;52.166;5.004;2023-04-01T19:01:07;100758.19;;;10.33;76.02
71384;BME280;67558;52.166;5.004;2023-04-01T19:15:13;100786.47;;;10.18;76.98
71384;BME280;67558;52.166;5.004;2023-04-01T19:17:58;100786.16;;;10.10;76.90
71384;BME280;67558;52.166;5.004;2023-04-01T19:20:31;100799.84;;;10.23;76.57
71384;BME280;67558;52.166;5.004;2023-04-01T19:26:05;100812.66;;;10.11;76.20
71384;BME280;67558;52.166;5.004;2023-04-01T19:33:49;100838.78;;;10.04;76.38
71384;BME280;67558;52.166;5.004;2023-04-01T19:36:25;100836.66;;;10.01;76.56
71384;BME280;67558;52.166;5.004;2023-04-01T19:42:02;100850.19;;;9.89;76.19
71384;BME280;67558;52.166;5.004;2023-04-01T19:44:51;100849.88;;;9.80;76.05
71384;BME280;67558;52.166;5.004;2023-04-01T19:47:30;100856.88;;;9.87;76.57
71384;BME280;67558;52.166;5.004;2023-04-01T19:50:16;100865.97;;;9.91;76.37
71384;BME280;67558;52.166;5.004;2023-04-01T19:52:45;100879.81;;;9.82;76.11
71384;BME280;67558;52.166;5.004;2023-04-01T20:00:41;100879.50;;;9.69;75.65
71384;BME280;67558;52.166;5.004;2023-04-01T20:12:09;100931.00;;;9.64;75.85
71384;BME280;67558;52.166;5.004;2023-04-01T20:14:46;100925.59;;;9.59;75.81
71384;BME280;67558;52.166;5.004;2023-04-01T20:26:09;100944.31;;;9.59;75.56
71384;BME280;67558;52.166;5.004;2023-04-01T20:29:05;100950.16;;;9.56;74.98
71384;BME280;67558;52.166;5.004;2023-04-01T20:43:20;100984.69;;;9.35;75.12
71384;BME280;67558;52.166;5.004;2023-04-01T20:51:06;101000.16;;;9.33;75.16
71384;BME280;67558;52.166;5.004;2023-04-01T20:53:39;101006.31;;;9.34;75.04
71384;BME280;67558;52.166;5.004;2023-04-01T21:07:55;101039.59;;;9.26;74.48
71384;BME280;67558;52.166;5.004;2023-04-01T21:10:50;101037.47;;;9.28;74.28
71384;BME280;67558;52.166;5.004;2023-04-01T21:27:49;101078.38;;;9.12;74.03
71384;BME280;67558;52.166;5.004;2023-04-01T21:46:31;101124.41;;;8.80;74.40
71384;BME280;67558;52.166;5.004;2023-04-01T21:58:19;101139.94;;;8.66;74.40
71384;BME280;67558;52.166;5.004;2023-04-01T22:04:03;101144.47;;;8.66;74.33
71384;BME280;67558;52.166;5.004;2023-04-01T22:06:49;101145.78;;;8.63;74.44
71384;BME280;67558;52.166;5.004;2023-04-01T22:09:36;101157.00;;;8.65;74.22
71384;BME280;67558;52.166;5.004;2023-04-01T22:12:10;101170.19;;;8.72;74.07
71384;BME280;67558;52.166;5.004;2023-04-01T22:19:56;101182.44;;;8.73;74.19
71384;BME280;67558;52.166;5.004;2023-04-01T22:22:49;101177.44;;;8.59;74.03